Bookmark and Share
Track history (hours):
 

Solana

More information available from US FCC via Universal Licensing System and Coast Guard Vessel Documentation Center.

Last reported at 2014-Apr-23 08:34 UTC. Time now 2014-Apr-23 09:17 UTC.
Position N 47°39' W 122°20'.

Type: Towing. MMSI: 366969740.

NotesDate/timePositionNaut miles runAvg speedWind from/ knotsBaromVisibWave heightAir tempDewpointWater temp
2014-Apr-23 08:34N 47°39' W 122°20'0 0.0
2014-Apr-23 08:31N 47°39' W 122°20'0 0.0
2014-Apr-23 07:33N 47°39' W 122°20'0 0.0
2014-Apr-23 07:31N 47°39' W 122°20'0 0.0
2014-Apr-23 06:34N 47°39' W 122°20'0 0.0
2014-Apr-23 06:25N 47°39' W 122°20'0 0.0
2014-Apr-23 05:50N 47°39' W 122°20'0 0.0
2014-Apr-23 05:33N 47°39' W 122°20'0 0.0
2014-Apr-23 04:33N 47°39' W 122°20'0 0.0
2014-Apr-23 04:30N 47°39' W 122°20'0 0.0
2014-Apr-23 03:34N 47°39' W 122°20'0 0.0
2014-Apr-23 03:30N 47°39' W 122°20'0 0.0
2014-Apr-23 02:34N 47°39' W 122°20'0 0.1
2014-Apr-23 02:30N 47°39' W 122°20'0 0.0
2014-Apr-23 01:34N 47°39' W 122°20'0 0.1
2014-Apr-23 01:30N 47°39' W 122°20'2 1.6
2014-Apr-23 00:30N 47°39' W 122°18'1 5.9
2014-Apr-23 00:25N 47°39' W 122°17'1 0.7
2014-Apr-22 23:33N 47°39' W 122°16'0 0.3
2014-Apr-22 23:25N 47°39' W 122°16'0 0.0
2014-Apr-22 22:33N 47°39' W 122°16'0 0.0
2014-Apr-22 22:30N 47°39' W 122°16'0 0.0
2014-Apr-22 21:23N 47°39' W 122°16'0 0.0
2014-Apr-22 20:15N 47°39' W 122°16'0 0.0
2014-Apr-22 19:27N 47°39' W 122°16'0 0.0
2014-Apr-22 19:19N 47°39' W 122°16'0 0.1
2014-Apr-22 18:34N 47°39' W 122°16'0 0.0
2014-Apr-22 17:32N 47°39' W 122°16'0 0.0
2014-Apr-22 16:50N 47°39' W 122°16'0 0.1
2014-Apr-22 16:28N 47°39' W 122°16'0 0.0
2014-Apr-22 16:20N 47°39' W 122°16'0 0.0
2014-Apr-22 15:20N 47°39' W 122°16'0 0.0
2014-Apr-22 14:33N 47°39' W 122°16'0 0.0
2014-Apr-22 14:19N 47°39' W 122°16'0 0.1
2014-Apr-22 13:33N 47°39' W 122°17'0 0.0
2014-Apr-22 13:29N 47°39' W 122°17'0 0.4
2014-Apr-22 12:33N 47°39' W 122°17'0 6.1
2014-Apr-22 12:29N 47°39' W 122°18'2 1.8
2014-Apr-22 11:25N 47°39' W 122°20'0 0.0
2014-Apr-22 11:22N 47°39' W 122°20'0 0.0
2014-Apr-22 10:34N 47°39' W 122°20'0 0.2
2014-Apr-22 10:32N 47°39' W 122°20'0 0.0
2014-Apr-22 09:33N 47°39' W 122°20'0 0.0
2014-Apr-22 09:32N 47°39' W 122°20'0 0.0
2014-Apr-22 08:34N 47°39' W 122°20'0 0.0
2014-Apr-22 08:32N 47°39' W 122°20'0 0.0
2014-Apr-22 07:33N 47°39' W 122°20'0 0.0
2014-Apr-22 07:31N 47°39' W 122°20'0 0.0
2014-Apr-22 06:33N 47°39' W 122°20'0 0.0
2014-Apr-22 06:31N 47°39' W 122°20'0 0.0
2014-Apr-22 05:36N 47°39' W 122°20'0 0.0
2014-Apr-22 05:33N 47°39' W 122°20'0 0.0
2014-Apr-22 04:34N 47°39' W 122°20'0 0.0
2014-Apr-22 04:32N 47°39' W 122°20'0 0.0
2014-Apr-22 03:34N 47°39' W 122°20'0 0.0
2014-Apr-22 03:31N 47°39' W 122°20'0 0.0
2014-Apr-22 02:10N 47°39' W 122°20'0 0.0
2014-Apr-22 02:05N 47°39' W 122°20'0 0.0
2014-Apr-22 01:33N 47°39' W 122°20'0 0.0
2014-Apr-22 01:25N 47°39' W 122°20'2 2.5
2014-Apr-22 00:32N 47°39' W 122°17'2 2.7
2014-Apr-21 23:54N 47°38' W 122°15'0 0.3
2014-Apr-21 23:33N 47°38' W 122°15'0 0.0
2014-Apr-21 23:30N 47°38' W 122°15'0 0.0
2014-Apr-21 22:30N 47°38' W 122°15'0 0.0
2014-Apr-21 22:23N 47°38' W 122°15'0 0.1
2014-Apr-21 21:33N 47°38' W 122°15'0 0.5
2014-Apr-21 21:28N 47°38' W 122°15'0 0.1
2014-Apr-21 20:32N 47°39' W 122°15'0 2.4
2014-Apr-21 20:28N 47°38' W 122°15'0 0.1
2014-Apr-21 19:33N 47°38' W 122°15'0 0.0
2014-Apr-21 19:33N 47°38' W 122°15'0 0.1
2014-Apr-21 18:33N 47°38' W 122°15'0 0.0
2014-Apr-21 18:33N 47°38' W 122°15'0 0.0
2014-Apr-21 17:33N 47°38' W 122°15'0 0.0
2014-Apr-21 17:33N 47°38' W 122°15'0 0.1
2014-Apr-21 16:33N 47°38' W 122°15'0 0.0
2014-Apr-21 16:32N 47°38' W 122°15'0 0.0
2014-Apr-21 15:33N 47°38' W 122°15'1 4.2
2014-Apr-21 15:22N 47°39' W 122°16'1 1.1
2014-Apr-21 14:33N 47°38' W 122°15'0 0.0
2014-Apr-21 14:32N 47°38' W 122°15'0 0.0
2014-Apr-21 13:33N 47°38' W 122°15'0 0.6
2014-Apr-21 13:32N 47°38' W 122°15'0 0.2
2014-Apr-21 12:33N 47°38' W 122°15'0 0.0
2014-Apr-21 12:32N 47°38' W 122°15'4 3.7
2014-Apr-21 11:33N 47°39' W 122°20'0 3.6
2014-Apr-21 11:33N 47°39' W 122°20'0 0.2
2014-Apr-21 10:33N 47°39' W 122°20'0 0.0
2014-Apr-21 10:32N 47°39' W 122°20'0 0.0
2014-Apr-21 09:33N 47°39' W 122°20'0 0.0
2014-Apr-21 09:32N 47°39' W 122°20'0 0.0
2014-Apr-21 08:33N 47°39' W 122°20'0 0.0
2014-Apr-21 08:32N 47°39' W 122°20'0 0.0
2014-Apr-21 07:33N 47°39' W 122°20'0 0.0
2014-Apr-21 07:32N 47°39' W 122°20'0 0.0
2014-Apr-21 06:33N 47°39' W 122°20'0 0.0
2014-Apr-21 06:32N 47°39' W 122°20'0 0.0
2014-Apr-21 05:47N 47°39' W 122°20'0 0.0
2014-Apr-21 05:33N 47°39' W 122°20'0 0.0
2014-Apr-21 04:33N 47°39' W 122°20'0 0.0
2014-Apr-21 04:31N 47°39' W 122°20'0 0.0
2014-Apr-21 03:33N 47°39' W 122°20'0 0.0
2014-Apr-21 03:32N 47°39' W 122°20'0 0.0
2014-Apr-21 02:33N 47°39' W 122°20'0 0.0
2014-Apr-21 02:32N 47°39' W 122°20'0 0.0
2014-Apr-21 01:33N 47°39' W 122°20'0 0.0
2014-Apr-21 01:32N 47°39' W 122°20'0 0.0
2014-Apr-21 00:33N 47°39' W 122°20'0 0.0
2014-Apr-21 00:32N 47°39' W 122°20'0 0.0
2014-Apr-20 23:33N 47°39' W 122°20'0 0.0
2014-Apr-20 23:31N 47°39' W 122°20'0 0.0
2014-Apr-20 22:33N 47°39' W 122°20'0 0.0
2014-Apr-20 22:31N 47°39' W 122°20'0 0.0
2014-Apr-20 21:33N 47°39' W 122°20'0 0.0
2014-Apr-20 21:31N 47°39' W 122°20'0 0.0
2014-Apr-20 20:33N 47°39' W 122°20'0 0.0
2014-Apr-20 20:31N 47°39' W 122°20'0 0.0
2014-Apr-20 19:33N 47°39' W 122°20'0 0.0
2014-Apr-20 19:31N 47°39' W 122°20'0 0.0
2014-Apr-20 18:33N 47°39' W 122°20'0 0.0
2014-Apr-20 18:31N 47°39' W 122°20'0 0.0
2014-Apr-20 17:33N 47°39' W 122°20'0 0.0
2014-Apr-20 17:31N 47°39' W 122°20'0 0.0
2014-Apr-20 16:33N 47°39' W 122°20'0 0.0
2014-Apr-20 16:30N 47°39' W 122°20'0 0.0
2014-Apr-20 15:33N 47°39' W 122°20'0 0.0
2014-Apr-20 15:30N 47°39' W 122°20'0 0.0
2014-Apr-20 14:33N 47°39' W 122°20'0 0.0
2014-Apr-20 14:30N 47°39' W 122°20'0 0.0
2014-Apr-20 13:33N 47°39' W 122°20'0 0.0
2014-Apr-20 13:30N 47°39' W 122°20'0 0.0
2014-Apr-20 12:33N 47°39' W 122°20'0 0.0
2014-Apr-20 12:30N 47°39' W 122°20'0 0.0
2014-Apr-20 11:33N 47°39' W 122°20'0 0.0
2014-Apr-20 11:30N 47°39' W 122°20'0 0.0
2014-Apr-20 10:33N 47°39' W 122°20'0 0.0
2014-Apr-20 10:30N 47°39' W 122°20'0 0.0
2014-Apr-20 09:33N 47°39' W 122°20'0 0.0
2014-Apr-20 09:30N 47°39' W 122°20'0 0.0
2014-Apr-20 08:33N 47°39' W 122°20'0 0.0
2014-Apr-20 08:30N 47°39' W 122°20'0 0.0
2014-Apr-20 07:33N 47°39' W 122°20'0 0.0
2014-Apr-20 07:30N 47°39' W 122°20'0 0.0
2014-Apr-20 06:33N 47°39' W 122°20'0 0.0
2014-Apr-20 06:30N 47°39' W 122°20'0 0.0
2014-Apr-20 05:50N 47°39' W 122°20'0 0.0
2014-Apr-20 05:33N 47°39' W 122°20'0 0.0
2014-Apr-20 04:33N 47°39' W 122°20'0 0.0
2014-Apr-20 04:29N 47°39' W 122°20'0 0.0
2014-Apr-20 03:33N 47°39' W 122°20'0 0.0
2014-Apr-20 03:30N 47°39' W 122°20'0 0.0
2014-Apr-20 02:33N 47°39' W 122°20'0 0.0
2014-Apr-20 02:29N 47°39' W 122°20'0 0.0
2014-Apr-20 01:33N 47°39' W 122°20'0 0.0
2014-Apr-20 01:29N 47°39' W 122°20'0 0.0
2014-Apr-20 00:34N 47°39' W 122°20'0 0.0
2014-Apr-20 00:30N 47°39' W 122°20'3 3.0
2014-Apr-19 23:33N 47°39' W 122°16'0 1.7
2014-Apr-19 23:19N 47°39' W 122°17'0 0.1
2014-Apr-19 22:33N 47°39' W 122°17'0 1.1
2014-Apr-19 22:29N 47°39' W 122°16'0 0.2
2014-Apr-19 21:34N 47°39' W 122°17'0 0.0
2014-Apr-19 21:30N 47°39' W 122°17'0 0.3
2014-Apr-19 20:30N 47°39' W 122°16'0 0.3
2014-Apr-19 19:34N 47°39' W 122°16'1 4.9
2014-Apr-19 19:22N 47°38' W 122°15'0 0.0
2014-Apr-19 18:33N 47°38' W 122°15'0 0.0
2014-Apr-19 18:31N 47°38' W 122°15'1 0.7
2014-Apr-19 17:33N 47°39' W 122°16'0 6.7
2014-Apr-19 17:31N 47°39' W 122°15'0 0.5
2014-Apr-19 16:32N 47°38' W 122°15'0 0.0
2014-Apr-19 16:32N 47°38' W 122°15'0 0.3
2014-Apr-19 15:33N 47°39' W 122°15'0 7.4
2014-Apr-19 15:32N 47°38' W 122°15'0 0.2
2014-Apr-19 14:33N 47°39' W 122°15'0 0.2
2014-Apr-19 13:33N 47°38' W 122°15'4 3.8
2014-Apr-19 12:34N 47°39' W 122°20'0 0.0
2014-Apr-19 12:31N 47°39' W 122°20'0 0.0
2014-Apr-19 11:33N 47°39' W 122°20'0 0.0
2014-Apr-19 11:31N 47°39' W 122°20'0 0.0
2014-Apr-19 10:34N 47°39' W 122°20'0 0.0
2014-Apr-19 10:32N 47°39' W 122°20'0 0.0
2014-Apr-19 09:34N 47°39' W 122°20'0 0.0
2014-Apr-19 09:31N 47°39' W 122°20'0 0.0
2014-Apr-19 08:34N 47°39' W 122°20'0 0.0
2014-Apr-19 08:31N 47°39' W 122°20'0 0.0
2014-Apr-19 07:33N 47°39' W 122°20'0 0.0
2014-Apr-19 07:31N 47°39' W 122°20'0 0.0
2014-Apr-19 06:33N 47°39' W 122°20'0 0.0
2014-Apr-19 06:31N 47°39' W 122°20'0 0.0
2014-Apr-19 05:51N 47°39' W 122°20'0 0.0
2014-Apr-19 05:33N 47°39' W 122°20'0 0.0
2014-Apr-19 04:34N 47°39' W 122°20'0 0.0
2014-Apr-19 04:31N 47°39' W 122°20'0 0.0
2014-Apr-19 03:33N 47°39' W 122°20'0 0.0
2014-Apr-19 03:31N 47°39' W 122°20'0 0.0
2014-Apr-19 02:34N 47°39' W 122°20'0 0.0
2014-Apr-19 02:30N 47°39' W 122°20'0 0.0
2014-Apr-19 01:33N 47°39' W 122°20'0 0.0
2014-Apr-19 01:30N 47°39' W 122°20'0 0.0
2014-Apr-19 00:33N 47°39' W 122°20'0 0.0
2014-Apr-19 00:30N 47°39' W 122°20'0 0.4
2014-Apr-18 23:33N 47°39' W 122°20'1 4.7
2014-Apr-18 23:14N 47°39' W 122°18'1 1.7
2014-Apr-18 22:34N 47°39' W 122°16'0 0.5
2014-Apr-18 22:10N 47°39' W 122°16'1 1.0
2014-Apr-18 21:34N 47°38' W 122°15'0 0.7
2014-Apr-18 21:30N 47°38' W 122°15'2 2.3
2014-Apr-18 20:30N 47°41' W 122°15'0 7.8
2014-Apr-18 20:29N 47°41' W 122°15'4 4.8
2014-Apr-18 19:34N 47°45' W 122°16'3 8.5
2014-Apr-18 19:14N 47°42' W 122°15'4 5.9
2014-Apr-18 18:33N 47°38' W 122°15'0 0.0
2014-Apr-18 18:29N 47°38' W 122°15'0 0.3
2014-Apr-18 17:33N 47°39' W 122°15'0 0.3
2014-Apr-18 17:30N 47°39' W 122°15'1 1.0
2014-Apr-18 16:34N 47°39' W 122°16'0 0.7
2014-Apr-18 16:14N 47°38' W 122°17'0 0.2
2014-Apr-18 15:33N 47°39' W 122°16'0 0.4
2014-Apr-18 15:14N 47°39' W 122°17'0 0.0
2014-Apr-18 14:33N 47°39' W 122°17'0 0.0
2014-Apr-18 14:29N 47°39' W 122°17'2 2.2
2014-Apr-18 13:32N 47°39' W 122°20'0 5.9
2014-Apr-18 13:29N 47°39' W 122°20'0 0.3
2014-Apr-18 12:33N 47°39' W 122°20'0 0.0
2014-Apr-18 12:29N 47°39' W 122°20'0 0.0
2014-Apr-18 11:33N 47°39' W 122°20'0 0.0
2014-Apr-18 11:29N 47°39' W 122°20'0 0.0
2014-Apr-18 10:33N 47°39' W 122°20'0 0.0
2014-Apr-18 10:29N 47°39' W 122°20'0 0.0
2014-Apr-18 09:31N 47°39' W 122°20'0 0.0
2014-Apr-18 09:29N 47°39' W 122°20'0 0.0
2014-Apr-18 08:32N 47°39' W 122°20'0 0.0
2014-Apr-18 08:29N 47°39' W 122°20'0 0.0
2014-Apr-18 07:33N 47°39' W 122°20'0 0.0
2014-Apr-18 07:29N 47°39' W 122°20'0 0.0
2014-Apr-18 06:33N 47°39' W 122°20'0 0.0
2014-Apr-18 06:29N 47°39' W 122°20'0 0.0
2014-Apr-18 05:34N 47°39' W 122°20'0 0.0
2014-Apr-18 05:33N 47°39' W 122°20'0 0.0
2014-Apr-18 04:33N 47°39' W 122°20'0 0.0
2014-Apr-18 04:29N 47°39' W 122°20'0 0.0
2014-Apr-18 03:33N 47°39' W 122°20'0 0.0
2014-Apr-18 03:28N 47°39' W 122°20'0 0.0
2014-Apr-18 02:33N 47°39' W 122°20'0 0.0
2014-Apr-18 02:29N 47°39' W 122°20'0 0.0
2014-Apr-18 01:33N 47°39' W 122°20'0 0.0
2014-Apr-18 01:29N 47°39' W 122°20'0 0.0
2014-Apr-18 00:33N 47°39' W 122°20'0 0.0
2014-Apr-18 00:29N 47°39' W 122°20'0 0.0
2014-Apr-17 23:33N 47°39' W 122°20'0 0.0
2014-Apr-17 23:33N 47°39' W 122°20'0 0.0
2014-Apr-17 22:33N 47°39' W 122°20'0 0.0
2014-Apr-17 22:33N 47°39' W 122°20'4 3.9
2014-Apr-17 21:34N 47°38' W 122°15'0 0.0
2014-Apr-17 21:33N 47°38' W 122°15'0 0.1
2014-Apr-17 20:32N 47°39' W 122°15'0 0.3
2014-Apr-17 20:24N 47°39' W 122°15'1 0.9
2014-Apr-17 19:32N 47°39' W 122°16'1 0.7
2014-Apr-17 18:33N 47°39' W 122°15'0 6.4
2014-Apr-17 18:33N 47°39' W 122°15'0 0.2
2014-Apr-17 17:33N 47°39' W 122°15'0 1.7
2014-Apr-17 17:19N 47°38' W 122°15'0 0.2
2014-Apr-17 16:30N 47°38' W 122°15'0 0.0
2014-Apr-17 16:30N 47°38' W 122°15'0 0.4
2014-Apr-17 15:33N 47°39' W 122°15'0 8.3
2014-Apr-17 15:30N 47°39' W 122°16'3 3.3
2014-Apr-17 14:33N 47°39' W 122°20'0 0.0
2014-Apr-17 14:30N 47°39' W 122°20'0 0.0
2014-Apr-17 13:33N 47°39' W 122°20'0 0.0
2014-Apr-17 13:30N 47°39' W 122°20'0 0.0
2014-Apr-17 12:33N 47°39' W 122°20'0 0.0
2014-Apr-17 12:29N 47°39' W 122°20'0 0.0
2014-Apr-17 11:33N 47°39' W 122°20'0 0.0
2014-Apr-17 11:29N 47°39' W 122°20'0 0.0
2014-Apr-17 10:33N 47°39' W 122°20'0 0.0
2014-Apr-17 10:30N 47°39' W 122°20'0 0.0
2014-Apr-17 09:33N 47°39' W 122°20'0 0.0
2014-Apr-17 09:30N 47°39' W 122°20'0 0.0
2014-Apr-17 08:33N 47°39' W 122°20'0 0.0
2014-Apr-17 08:29N 47°39' W 122°20'0 0.0
2014-Apr-17 07:33N 47°39' W 122°20'0 0.0
2014-Apr-17 07:29N 47°39' W 122°20'0 0.0
2014-Apr-17 06:34N 47°39' W 122°20'0 0.0
2014-Apr-17 06:29N 47°39' W 122°20'0 0.0
2014-Apr-17 05:44N 47°39' W 122°20'0 0.0
2014-Apr-17 05:34N 47°39' W 122°20'2 1.9
2014-Apr-17 04:33N 47°39' W 122°18'1 1.2
2014-Apr-17 03:59N 47°39' W 122°17'0 0.2
2014-Apr-17 03:33N 47°39' W 122°17'0 2.3
2014-Apr-17 03:30N 47°39' W 122°17'2 2.1
2014-Apr-17 02:33N 47°39' W 122°20'0 2.6
2014-Apr-17 02:24N 47°39' W 122°20'2 2.3
2014-Apr-17 01:33N 47°40' W 122°23'0 2.6
2014-Apr-17 01:29N 47°40' W 122°23'1 0.8
2014-Apr-17 00:34N 47°40' W 122°24'0 0.0
2014-Apr-17 00:33N 47°40' W 122°24'1 0.8
2014-Apr-16 23:34N 47°41' W 122°25'0 2.6
2014-Apr-16 23:33N 47°41' W 122°25'1 0.9
2014-Apr-16 22:33N 47°40' W 122°26'0 0.0
2014-Apr-16 22:29N 47°40' W 122°26'0 0.0
2014-Apr-16 21:33N 47°40' W 122°26'0 0.0
2014-Apr-16 21:33N 47°40' W 122°26'0 0.0
2014-Apr-16 20:33N 47°40' W 122°26'0 0.0
2014-Apr-16 20:33N 47°40' W 122°26'0 0.0
2014-Apr-16 19:33N 47°40' W 122°26'0 0.0
2014-Apr-16 19:33N 47°40' W 122°26'0 0.0
2014-Apr-16 18:33N 47°40' W 122°26'0 0.0
2014-Apr-16 18:33N 47°40' W 122°26'0 0.4
2014-Apr-16 17:33N 47°40' W 122°26'0 3.9
2014-Apr-16 17:33N 47°40' W 122°26'2 1.9
2014-Apr-16 16:33N 47°40' W 122°23'0 0.0
2014-Apr-16 16:33N 47°40' W 122°23'2 2.1
2014-Apr-16 15:32N 47°39' W 122°20'0 0.0
2014-Apr-16 14:33N 47°39' W 122°20'0 0.0
2014-Apr-16 14:33N 47°39' W 122°20'0 0.0
2014-Apr-16 13:33N 47°39' W 122°20'0 0.0
2014-Apr-16 13:28N 47°39' W 122°20'0 0.0
2014-Apr-16 12:33N 47°39' W 122°20'0 0.3
2014-Apr-16 12:32N 47°39' W 122°20'0 0.0
2014-Apr-16 11:33N 47°39' W 122°20'0 0.0
2014-Apr-16 11:28N 47°39' W 122°20'0 0.0
2014-Apr-16 10:33N 47°39' W 122°20'0 0.0
2014-Apr-16 10:33N 47°39' W 122°20'0 0.0
2014-Apr-16 09:33N 47°39' W 122°20'0 0.0
2014-Apr-16 09:33N 47°39' W 122°20'0 0.0
2014-Apr-16 08:33N 47°39' W 122°20'0 0.0
2014-Apr-16 08:33N 47°39' W 122°20'0 0.0
2014-Apr-16 07:33N 47°39' W 122°20'0 0.0
2014-Apr-16 07:32N 47°39' W 122°20'0 0.0
2014-Apr-16 06:33N 47°39' W 122°20'0 0.5
2014-Apr-16 06:33N 47°39' W 122°20'0 0.0
2014-Apr-16 05:47N 47°39' W 122°20'0 0.0
2014-Apr-16 05:33N 47°39' W 122°20'0 0.0
2014-Apr-16 04:33N 47°39' W 122°20'0 0.0
2014-Apr-16 04:32N 47°39' W 122°20'0 0.0
2014-Apr-16 03:33N 47°39' W 122°20'0 0.3
2014-Apr-16 03:32N 47°39' W 122°20'3 2.6
2014-Apr-16 02:33N 47°39' W 122°17'0 0.0
2014-Apr-16 02:32N 47°39' W 122°17'2 2.2
2014-Apr-16 01:33N 47°40' W 122°15'2 8.0
2014-Apr-16 01:22N 47°42' W 122°15'4 4.5
2014-Apr-16 00:33N 47°45' W 122°15'1 1.2
2014-Apr-15 23:33N 47°44' W 122°16'2 8.5
2014-Apr-15 23:21N 47°43' W 122°16'4 5.0
2014-Apr-15 22:33N 47°39' W 122°15'0 0.7
2014-Apr-15 22:32N 47°39' W 122°15'1 1.0
2014-Apr-15 21:33N 47°39' W 122°17'0 0.0
2014-Apr-15 21:32N 47°39' W 122°17'1 1.0
2014-Apr-15 20:33N 47°39' W 122°15'0 0.0
2014-Apr-15 20:27N 47°39' W 122°15'0 0.0
2014-Apr-15 19:33N 47°39' W 122°15'0 0.0
2014-Apr-15 19:32N 47°39' W 122°15'0 0.0
2014-Apr-15 18:33N 47°39' W 122°15'0 0.0
2014-Apr-15 18:32N 47°39' W 122°15'0 0.1
2014-Apr-15 17:33N 47°39' W 122°15'0 3.4
2014-Apr-15 17:31N 47°39' W 122°15'0 0.3
2014-Apr-15 16:33N 47°38' W 122°15'0 1.7
2014-Apr-15 16:32N 47°38' W 122°15'3 3.5
2014-Apr-15 15:33N 47°39' W 122°20'0 5.3
2014-Apr-15 15:31N 47°39' W 122°20'0 0.4
2014-Apr-15 14:33N 47°39' W 122°20'0 0.2
2014-Apr-15 14:31N 47°39' W 122°20'0 0.0
2014-Apr-15 13:31N 47°39' W 122°20'0 0.0
2014-Apr-15 12:34N 47°39' W 122°20'0 0.0
2014-Apr-15 12:27N 47°39' W 122°20'0 0.0
2014-Apr-15 11:34N 47°39' W 122°20'0 0.0
2014-Apr-15 11:31N 47°39' W 122°20'0 0.0
2014-Apr-15 10:34N 47°39' W 122°20'0 0.0
2014-Apr-15 10:32N 47°39' W 122°20'0 0.0
2014-Apr-15 09:34N 47°39' W 122°20'0 0.0
2014-Apr-15 09:32N 47°39' W 122°20'0 0.0
2014-Apr-15 08:34N 47°39' W 122°20'0 0.0
2014-Apr-15 08:31N 47°39' W 122°20'0 0.0
2014-Apr-15 07:34N 47°39' W 122°20'0 0.0
2014-Apr-15 07:31N 47°39' W 122°20'0 0.0
2014-Apr-15 06:34N 47°39' W 122°20'0 0.0
2014-Apr-15 06:31N 47°39' W 122°20'0 0.0
2014-Apr-15 05:51N 47°39' W 122°20'0 0.0
2014-Apr-15 05:34N 47°39' W 122°20'0 0.0
2014-Apr-15 04:31N 47°39' W 122°20'0 0.0
2014-Apr-15 03:34N 47°39' W 122°20'0 0.0
2014-Apr-15 03:31N 47°39' W 122°20'0 0.0
2014-Apr-15 02:34N 47°39' W 122°20'0 9.3
2014-Apr-15 02:31N 47°39' W 122°20'0 0.2
2014-Apr-15 01:34N 47°39' W 122°20'469.7
2014-Apr-15 01:31N 47°38' W 122°15'0 0.2
2014-Apr-15 00:34N 47°38' W 122°15'4 3.6
2014-Apr-14 23:33N 47°42' W 122°15'118.8
2014-Apr-14 23:30N 47°43' W 122°16'0 0.5
2014-Apr-14 22:34N 47°43' W 122°16'589.8
2014-Apr-14 22:30N 47°39' W 122°20'0 0.3
2014-Apr-14 21:34N 47°39' W 122°20'010.8
2014-Apr-14 21:31N 47°39' W 122°20'0 0.0
2014-Apr-14 20:34N 47°39' W 122°20'0 0.0
2014-Apr-14 18:06N 47°39' W 122°20'0 0.0
2014-Apr-14 17:31N 47°39' W 122°20'0 0.0
2014-Apr-14 16:33N 47°39' W 122°20'0 0.0
2014-Apr-14 15:33N 47°39' W 122°20'4 2.8
2014-Apr-14 14:11N 47°38' W 122°15'1 2.1
2014-Apr-14 13:33N 47°39' W 122°17'124.4
2014-Apr-14 13:30N 47°38' W 122°15'4 2.6
2014-Apr-14 11:56N 47°42' W 122°16'3 8.0
2014-Apr-14 11:34N 47°45' W 122°15'6115.4
2014-Apr-14 11:30N 47°39' W 122°15'0 0.5
2014-Apr-14 10:34N 47°39' W 122°15'478.6
2014-Apr-14 10:31N 47°39' W 122°20'0 0.2
2014-Apr-14 09:33N 47°39' W 122°20'0 2.9
2014-Apr-14 09:30N 47°39' W 122°20'0 0.0
2014-Apr-14 08:33N 47°39' W 122°20'0 0.0
2014-Apr-14 08:25N 47°39' W 122°20'0 0.0
2014-Apr-14 07:33N 47°39' W 122°20'0 0.0
2014-Apr-14 07:30N 47°39' W 122°20'0 0.0
2014-Apr-14 06:33N 47°39' W 122°20'0 0.0
2014-Apr-14 06:30N 47°39' W 122°20'0 0.0
2014-Apr-14 05:45N 47°39' W 122°20'0 0.0
2014-Apr-14 05:33N 47°39' W 122°20'0 0.0
2014-Apr-14 04:29N 47°39' W 122°20'0 0.0
2014-Apr-14 03:29N 47°39' W 122°20'0 0.0
2014-Apr-14 02:18N 47°39' W 122°20'2 2.2
2014-Apr-14 01:19N 47°39' W 122°17'5 1.7
2014-Apr-13 22:33N 47°40' W 122°24'0 0.4
2014-Apr-13 21:33N 47°40' W 122°24'0 0.0
2014-Apr-13 20:33N 47°40' W 122°24'1 1.2
2014-Apr-13 19:33N 47°40' W 122°26'0 0.4
2014-Apr-13 18:33N 47°40' W 122°26'0 0.0
2014-Apr-13 17:33N 47°40' W 122°26'0 0.0
2014-Apr-13 16:33N 47°40' W 122°26'0 0.2
2014-Apr-13 15:33N 47°40' W 122°26'1 0.7
2014-Apr-13 14:33N 47°41' W 122°25'2 2.1
2014-Apr-13 13:33N 47°40' W 122°23'4 4.1
2014-Apr-13 12:33N 47°39' W 122°17'3 2.5
2014-Apr-13 11:33N 47°39' W 122°20'0 0.0
2014-Apr-13 10:33N 47°39' W 122°20'0 0.0
2014-Apr-13 09:33N 47°39' W 122°20'  

Dump ship's entire track history

sailing weather and tide predictions

Solana — WCY5602 — position and weather